sensor_id;sensor_type;location;lat;lon;timestamp;temperature;humidity
32534;DHT22;18973;48.580;8.912;2023-04-21T00:00:06;5.30;99.90
32534;DHT22;18973;48.580;8.912;2023-04-21T00:02:34;5.30;99.90
32534;DHT22;18973;48.580;8.912;2023-04-21T00:05:05;5.20;99.90
32534;DHT22;18973;48.580;8.912;2023-04-21T00:07:34;5.10;99.90
32534;DHT22;18973;48.580;8.912;2023-04-21T00:10:03;5.20;99.90
32534;DHT22;18973;48.580;8.912;2023-04-21T00:12:29;5.40;99.90
32534;DHT22;18973;48.580;8.912;2023-04-21T00:14:55;5.40;99.90
32534;DHT22;18973;48.580;8.912;2023-04-21T00:17:20;5.50;99.90
32534;DHT22;18973;48.580;8.912;2023-04-21T00:19:46;5.50;99.90
32534;DHT22;18973;48.580;8.912;2023-04-21T00:22:12;5.30;99.90
32534;DHT22;18973;48.580;8.912;2023-04-21T00:24:39;5.20;99.90
32534;DHT22;18973;48.580;8.912;2023-04-21T00:27:05;5.20;99.90
32534;DHT22;18973;48.580;8.912;2023-04-21T00:29:31;5.00;99.90
32534;DHT22;18973;48.580;8.912;2023-04-21T00:31:56;5.10;99.90
32534;DHT22;18973;48.580;8.912;2023-04-21T00:34:22;5.20;99.90
32534;DHT22;18973;48.580;8.912;2023-04-21T00:36:48;5.10;99.90
32534;DHT22;18973;48.580;8.912;2023-04-21T00:39:13;5.00;99.90
32534;DHT22;18973;48.580;8.912;2023-04-21T00:41:40;5.00;99.90
32534;DHT22;18973;48.580;8.912;2023-04-21T00:44:07;5.10;99.90
32534;DHT22;18973;48.580;8.912;2023-04-21T00:46:33;5.20;99.90
32534;DHT22;18973;48.580;8.912;2023-04-21T00:49:03;5.10;99.90
32534;DHT22;18973;48.580;8.912;2023-04-21T00:51:29;5.20;99.90
32534;DHT22;18973;48.580;8.912;2023-04-21T00:53:56;5.20;99.90
32534;DHT22;18973;48.580;8.912;2023-04-21T00:56:22;5.00;99.90
32534;DHT22;18973;48.580;8.912;2023-04-21T00:58:48;5.20;99.90
32534;DHT22;18973;48.580;8.912;2023-04-21T01:01:14;5.20;99.90
32534;DHT22;18973;48.580;8.912;2023-04-21T01:03:41;5.20;99.90
32534;DHT22;18973;48.580;8.912;2023-04-21T01:06:08;5.40;99.90
32534;DHT22;18973;48.580;8.912;2023-04-21T01:08:34;5.40;99.90
32534;DHT22;18973;48.580;8.912;2023-04-21T01:11:07;5.50;99.90
32534;DHT22;18973;48.580;8.912;2023-04-21T01:13:33;5.30;99.90
32534;DHT22;18973;48.580;8.912;2023-04-21T01:15:58;5.40;99.90
32534;DHT22;18973;48.580;8.912;2023-04-21T01:18:24;5.10;99.90
32534;DHT22;18973;48.580;8.912;2023-04-21T01:20:50;5.00;99.90
32534;DHT22;18973;48.580;8.912;2023-04-21T01:23:16;5.00;99.90
32534;DHT22;18973;48.580;8.912;2023-04-21T01:25:43;4.80;99.90
32534;DHT22;18973;48.580;8.912;2023-04-21T01:28:09;4.70;99.90
32534;DHT22;18973;48.580;8.912;2023-04-21T01:30:34;4.70;99.90
32534;DHT22;18973;48.580;8.912;2023-04-21T01:33:00;4.70;99.90
32534;DHT22;18973;48.580;8.912;2023-04-21T01:35:26;4.60;99.90
32534;DHT22;18973;48.580;8.912;2023-04-21T01:37:51;4.60;99.90
32534;DHT22;18973;48.580;8.912;2023-04-21T01:40:17;4.60;99.90
32534;DHT22;18973;48.580;8.912;2023-04-21T01:42:43;4.50;99.90
32534;DHT22;18973;48.580;8.912;2023-04-21T01:45:09;4.50;99.90
32534;DHT22;18973;48.580;8.912;2023-04-21T01:47:34;4.50;99.90
32534;DHT22;18973;48.580;8.912;2023-04-21T01:50:00;4.50;99.90
32534;DHT22;18973;48.580;8.912;2023-04-21T01:52:26;4.70;99.90
32534;DHT22;18973;48.580;8.912;2023-04-21T01:54:52;4.50;99.90
32534;DHT22;18973;48.580;8.912;2023-04-21T01:57:17;4.50;99.90
32534;DHT22;18973;48.580;8.912;2023-04-21T01:59:44;4.40;99.90
32534;DHT22;18973;48.580;8.912;2023-04-21T02:02:09;4.20;99.90
32534;DHT22;18973;48.580;8.912;2023-04-21T02:04:35;4.20;99.90
32534;DHT22;18973;48.580;8.912;2023-04-21T02:07:01;4.40;99.90
32534;DHT22;18973;48.580;8.912;2023-04-21T02:09:27;4.40;99.90
32534;DHT22;18973;48.580;8.912;2023-04-21T02:11:55;4.10;99.90
32534;DHT22;18973;48.580;8.912;2023-04-21T02:14:22;3.90;99.90
32534;DHT22;18973;48.580;8.912;2023-04-21T02:16:47;4.10;99.90
32534;DHT22;18973;48.580;8.912;2023-04-21T02:19:13;3.80;99.90
32534;DHT22;18973;48.580;8.912;2023-04-21T02:21:38;3.70;99.90
32534;DHT22;18973;48.580;8.912;2023-04-21T02:24:04;3.70;99.90
32534;DHT22;18973;48.580;8.912;2023-04-21T02:26:30;3.80;99.90
32534;DHT22;18973;48.580;8.912;2023-04-21T02:28:56;4.10;99.90
32534;DHT22;18973;48.580;8.912;2023-04-21T02:31:21;4.20;99.90
32534;DHT22;18973;48.580;8.912;2023-04-21T02:33:47;4.30;99.90
32534;DHT22;18973;48.580;8.912;2023-04-21T02:36:13;4.40;99.90
32534;DHT22;18973;48.580;8.912;2023-04-21T02:38:38;4.50;99.90
32534;DHT22;18973;48.580;8.912;2023-04-21T02:41:04;4.60;99.90
32534;DHT22;18973;48.580;8.912;2023-04-21T02:43:30;4.60;99.90
32534;DHT22;18973;48.580;8.912;2023-04-21T02:45:55;4.80;99.90
32534;DHT22;18973;48.580;8.912;2023-04-21T02:48:21;4.70;99.90
32534;DHT22;18973;48.580;8.912;2023-04-21T02:50:50;4.70;99.90
32534;DHT22;18973;48.580;8.912;2023-04-21T02:53:18;4.70;99.90
32534;DHT22;18973;48.580;8.912;2023-04-21T02:55:44;4.80;99.90
32534;DHT22;18973;48.580;8.912;2023-04-21T02:58:10;4.80;99.90
32534;DHT22;18973;48.580;8.912;2023-04-21T03:00:35;4.50;99.90
32534;DHT22;18973;48.580;8.912;2023-04-21T03:03:02;4.40;99.90
32534;DHT22;18973;48.580;8.912;2023-04-21T03:05:27;4.60;99.90
32534;DHT22;18973;48.580;8.912;2023-04-21T03:07:53;4.70;99.90
32534;DHT22;18973;48.580;8.912;2023-04-21T03:10:19;4.70;99.90
32534;DHT22;18973;48.580;8.912;2023-04-21T03:12:45;4.60;99.90
32534;DHT22;18973;48.580;8.912;2023-04-21T03:15:10;4.70;99.90
32534;DHT22;18973;48.580;8.912;2023-04-21T03:17:39;4.90;99.90
32534;DHT22;18973;48.580;8.912;2023-04-21T03:20:06;4.90;99.90
32534;DHT22;18973;48.580;8.912;2023-04-21T03:22:34;5.00;99.90
32534;DHT22;18973;48.580;8.912;2023-04-21T03:25:00;4.80;99.90
32534;DHT22;18973;48.580;8.912;2023-04-21T03:27:25;4.90;99.90
32534;DHT22;18973;48.580;8.912;2023-04-21T03:29:51;4.80;99.90
32534;DHT22;18973;48.580;8.912;2023-04-21T03:32:17;4.80;99.90
32534;DHT22;18973;48.580;8.912;2023-04-21T03:34:43;4.90;99.90
32534;DHT22;18973;48.580;8.912;2023-04-21T03:37:08;5.00;99.90
32534;DHT22;18973;48.580;8.912;2023-04-21T03:39:34;4.90;99.90
32534;DHT22;18973;48.580;8.912;2023-04-21T03:42:00;4.90;99.90
32534;DHT22;18973;48.580;8.912;2023-04-21T03:44:26;5.00;99.90
32534;DHT22;18973;48.580;8.912;2023-04-21T03:46:53;4.90;99.90
32534;DHT22;18973;48.580;8.912;2023-04-21T03:49:20;4.80;99.90
32534;DHT22;18973;48.580;8.912;2023-04-21T03:51:46;4.80;99.90
32534;DHT22;18973;48.580;8.912;2023-04-21T03:54:11;4.60;99.90
32534;DHT22;18973;48.580;8.912;2023-04-21T03:56:37;4.50;99.90
32534;DHT22;18973;48.580;8.912;2023-04-21T03:59:03;4.60;99.90
32534;DHT22;18973;48.580;8.912;2023-04-21T04:01:29;4.70;99.90
32534;DHT22;18973;48.580;8.912;2023-04-21T04:03:54;4.70;99.90
32534;DHT22;18973;48.580;8.912;2023-04-21T04:06:20;4.70;99.90
32534;DHT22;18973;48.580;8.912;2023-04-21T04:08:46;4.60;99.90
32534;DHT22;18973;48.580;8.912;2023-04-21T04:11:11;4.60;99.90
32534;DHT22;18973;48.580;8.912;2023-04-21T04:13:37;4.60;99.90
32534;DHT22;18973;48.580;8.912;2023-04-21T04:16:03;4.50;99.90
32534;DHT22;18973;48.580;8.912;2023-04-21T04:18:29;4.60;99.90
32534;DHT22;18973;48.580;8.912;2023-04-21T04:20:54;4.50;99.90
32534;DHT22;18973;48.580;8.912;2023-04-21T04:23:20;4.40;99.90
32534;DHT22;18973;48.580;8.912;2023-04-21T04:25:46;4.30;99.90
32534;DHT22;18973;48.580;8.912;2023-04-21T04:28:13;4.20;99.90
32534;DHT22;18973;48.580;8.912;2023-04-21T04:30:40;4.30;99.90
32534;DHT22;18973;48.580;8.912;2023-04-21T04:33:06;4.30;99.90
32534;DHT22;18973;48.580;8.912;2023-04-21T04:35:31;4.30;99.90
32534;DHT22;18973;48.580;8.912;2023-04-21T04:37:57;4.40;99.90
32534;DHT22;18973;48.580;8.912;2023-04-21T04:40:24;4.40;99.90
32534;DHT22;18973;48.580;8.912;2023-04-21T04:42:49;4.40;99.90
32534;DHT22;18973;48.580;8.912;2023-04-21T04:45:16;4.30;99.90
32534;DHT22;18973;48.580;8.912;2023-04-21T04:47:42;4.40;99.90
32534;DHT22;18973;48.580;8.912;2023-04-21T04:50:08;4.40;99.90
32534;DHT22;18973;48.580;8.912;2023-04-21T04:52:33;4.40;99.90
32534;DHT22;18973;48.580;8.912;2023-04-21T04:54:59;4.50;99.90
32534;DHT22;18973;48.580;8.912;2023-04-21T04:57:25;4.50;99.90
32534;DHT22;18973;48.580;8.912;2023-04-21T04:59:54;4.40;99.90
32534;DHT22;18973;48.580;8.912;2023-04-21T05:02:20;4.50;99.90
32534;DHT22;18973;48.580;8.912;2023-04-21T05:04:49;4.50;99.90
32534;DHT22;18973;48.580;8.912;2023-04-21T05:07:14;4.50;99.90
32534;DHT22;18973;48.580;8.912;2023-04-21T05:09:40;4.50;99.90
32534;DHT22;18973;48.580;8.912;2023-04-21T05:12:06;4.50;99.90
32534;DHT22;18973;48.580;8.912;2023-04-21T05:14:31;4.50;99.90
32534;DHT22;18973;48.580;8.912;2023-04-21T05:16:57;4.40;99.90
32534;DHT22;18973;48.580;8.912;2023-04-21T05:19:23;4.50;99.90
32534;DHT22;18973;48.580;8.912;2023-04-21T05:21:48;4.60;99.90
32534;DHT22;18973;48.580;8.912;2023-04-21T05:24:15;4.40;99.90
32534;DHT22;18973;48.580;8.912;2023-04-21T05:26:40;4.20;99.90
32534;DHT22;18973;48.580;8.912;2023-04-21T05:29:06;4.40;99.90
32534;DHT22;18973;48.580;8.912;2023-04-21T05:31:31;4.50;99.90
32534;DHT22;18973;48.580;8.912;2023-04-21T05:33:58;4.60;99.90
32534;DHT22;18973;48.580;8.912;2023-04-21T05:36:23;4.60;99.90
32534;DHT22;18973;48.580;8.912;2023-04-21T05:38:49;4.60;99.90
32534;DHT22;18973;48.580;8.912;2023-04-21T05:41:15;4.70;99.90
32534;DHT22;18973;48.580;8.912;2023-04-21T05:43:40;4.60;99.90
32534;DHT22;18973;48.580;8.912;2023-04-21T05:46:09;4.60;99.90
32534;DHT22;18973;48.580;8.912;2023-04-21T05:48:35;4.60;99.90
32534;DHT22;18973;48.580;8.912;2023-04-21T05:51:13;4.60;99.90
32534;DHT22;18973;48.580;8.912;2023-04-21T05:53:43;4.70;99.90
32534;DHT22;18973;48.580;8.912;2023-04-21T05:56:09;4.60;99.90
32534;DHT22;18973;48.580;8.912;2023-04-21T05:58:36;4.50;99.90
32534;DHT22;18973;48.580;8.912;2023-04-21T06:01:02;4.20;99.90
32534;DHT22;18973;48.580;8.912;2023-04-21T06:03:30;4.10;99.90
32534;DHT22;18973;48.580;8.912;2023-04-21T06:05:56;4.00;99.90
32534;DHT22;18973;48.580;8.912;2023-04-21T06:08:23;4.20;99.90
32534;DHT22;18973;48.580;8.912;2023-04-21T06:10:48;4.40;99.90
32534;DHT22;18973;48.580;8.912;2023-04-21T06:13:14;4.30;99.90
32534;DHT22;18973;48.580;8.912;2023-04-21T06:15:40;4.40;99.90
32534;DHT22;18973;48.580;8.912;2023-04-21T06:18:05;4.40;99.90
32534;DHT22;18973;48.580;8.912;2023-04-21T06:20:31;4.40;99.90
32534;DHT22;18973;48.580;8.912;2023-04-21T06:22:57;4.40;99.90
32534;DHT22;18973;48.580;8.912;2023-04-21T06:25:22;4.50;99.90
32534;DHT22;18973;48.580;8.912;2023-04-21T06:27:48;4.40;99.90
32534;DHT22;18973;48.580;8.912;2023-04-21T06:30:14;4.30;99.90
32534;DHT22;18973;48.580;8.912;2023-04-21T06:32:40;4.40;99.90
32534;DHT22;18973;48.580;8.912;2023-04-21T06:35:06;4.60;99.90
32534;DHT22;18973;48.580;8.912;2023-04-21T06:37:32;4.70;99.90
32534;DHT22;18973;48.580;8.912;2023-04-21T06:39:57;4.90;99.90
32534;DHT22;18973;48.580;8.912;2023-04-21T06:42:23;4.90;99.90
32534;DHT22;18973;48.580;8.912;2023-04-21T06:44:49;4.90;99.90
32534;DHT22;18973;48.580;8.912;2023-04-21T06:47:15;5.00;99.90
32534;DHT22;18973;48.580;8.912;2023-04-21T06:49:41;5.20;99.90
32534;DHT22;18973;48.580;8.912;2023-04-21T06:52:07;5.40;99.90
32534;DHT22;18973;48.580;8.912;2023-04-21T06:54:33;5.50;99.90
32534;DHT22;18973;48.580;8.912;2023-04-21T06:56:59;5.60;99.90
32534;DHT22;18973;48.580;8.912;2023-04-21T06:59:27;5.80;99.90
32534;DHT22;18973;48.580;8.912;2023-04-21T07:01:53;5.80;99.90
32534;DHT22;18973;48.580;8.912;2023-04-21T07:04:19;5.80;99.90
32534;DHT22;18973;48.580;8.912;2023-04-21T07:06:45;6.00;99.90
32534;DHT22;18973;48.580;8.912;2023-04-21T07:09:11;6.00;99.90
32534;DHT22;18973;48.580;8.912;2023-04-21T07:11:37;5.90;99.90
32534;DHT22;18973;48.580;8.912;2023-04-21T07:14:02;5.90;99.90
32534;DHT22;18973;48.580;8.912;2023-04-21T07:16:28;5.60;99.90
32534;DHT22;18973;48.580;8.912;2023-04-21T07:18:54;5.60;99.90
32534;DHT22;18973;48.580;8.912;2023-04-21T07:21:20;5.60;99.90
32534;DHT22;18973;48.580;8.912;2023-04-21T07:23:46;5.60;99.90
32534;DHT22;18973;48.580;8.912;2023-04-21T07:26:12;5.50;99.90
32534;DHT22;18973;48.580;8.912;2023-04-21T07:28:38;5.50;99.90
32534;DHT22;18973;48.580;8.912;2023-04-21T07:31:05;5.60;99.90
32534;DHT22;18973;48.580;8.912;2023-04-21T07:33:31;5.80;99.90
32534;DHT22;18973;48.580;8.912;2023-04-21T07:35:57;6.10;99.90
32534;DHT22;18973;48.580;8.912;2023-04-21T07:38:23;6.20;99.90
32534;DHT22;18973;48.580;8.912;2023-04-21T07:40:49;6.30;99.90
32534;DHT22;18973;48.580;8.912;2023-04-21T07:43:16;6.30;99.90
32534;DHT22;18973;48.580;8.912;2023-04-21T07:45:43;6.30;99.90
32534;DHT22;18973;48.580;8.912;2023-04-21T07:48:09;6.30;99.90
32534;DHT22;18973;48.580;8.912;2023-04-21T07:50:35;6.40;99.90
32534;DHT22;18973;48.580;8.912;2023-04-21T07:53:01;6.40;99.90
32534;DHT22;18973;48.580;8.912;2023-04-21T07:55:28;6.70;99.90
32534;DHT22;18973;48.580;8.912;2023-04-21T07:57:53;6.80;99.90
32534;DHT22;18973;48.580;8.912;2023-04-21T08:00:20;6.90;99.90
32534;DHT22;18973;48.580;8.912;2023-04-21T08:02:46;6.90;99.90
32534;DHT22;18973;48.580;8.912;2023-04-21T08:05:12;7.00;99.90
32534;DHT22;18973;48.580;8.912;2023-04-21T08:07:37;7.10;99.90
32534;DHT22;18973;48.580;8.912;2023-04-21T08:10:05;7.30;99.90
32534;DHT22;18973;48.580;8.912;2023-04-21T08:12:31;7.40;99.90
32534;DHT22;18973;48.580;8.912;2023-04-21T08:14:57;7.60;99.90
32534;DHT22;18973;48.580;8.912;2023-04-21T08:17:22;7.90;99.90
32534;DHT22;18973;48.580;8.912;2023-04-21T08:19:50;8.60;99.90
32534;DHT22;18973;48.580;8.912;2023-04-21T08:22:16;8.60;99.90
32534;DHT22;18973;48.580;8.912;2023-04-21T08:24:42;8.60;99.90
32534;DHT22;18973;48.580;8.912;2023-04-21T08:27:08;8.70;99.90
32534;DHT22;18973;48.580;8.912;2023-04-21T08:29:33;8.70;99.90
32534;DHT22;18973;48.580;8.912;2023-04-21T08:32:02;8.60;99.90
32534;DHT22;18973;48.580;8.912;2023-04-21T08:34:28;8.40;99.90
32534;DHT22;18973;48.580;8.912;2023-04-21T08:36:53;8.70;99.90
32534;DHT22;18973;48.580;8.912;2023-04-21T08:39:28;8.90;99.90
32534;DHT22;18973;48.580;8.912;2023-04-21T08:41:55;9.30;99.90
32534;DHT22;18973;48.580;8.912;2023-04-21T08:44:22;9.60;99.90
32534;DHT22;18973;48.580;8.912;2023-04-21T08:46:48;9.70;99.90
32534;DHT22;18973;48.580;8.912;2023-04-21T08:49:18;9.90;99.90
32534;DHT22;18973;48.580;8.912;2023-04-21T08:51:47;10.10;99.90
32534;DHT22;18973;48.580;8.912;2023-04-21T08:54:12;10.30;99.90
32534;DHT22;18973;48.580;8.912;2023-04-21T08:56:38;10.40;99.90
32534;DHT22;18973;48.580;8.912;2023-04-21T08:59:05;10.60;99.90
32534;DHT22;18973;48.580;8.912;2023-04-21T09:01:30;10.80;99.90
32534;DHT22;18973;48.580;8.912;2023-04-21T09:04:22;10.90;99.90
32534;DHT22;18973;48.580;8.912;2023-04-21T09:06:48;11.00;99.90
32534;DHT22;18973;48.580;8.912;2023-04-21T09:09:14;11.20;99.90
32534;DHT22;18973;48.580;8.912;2023-04-21T09:11:39;11.40;99.90
32534;DHT22;18973;48.580;8.912;2023-04-21T09:14:05;11.60;99.90
32534;DHT22;18973;48.580;8.912;2023-04-21T09:16:31;11.80;99.90
32534;DHT22;18973;48.580;8.912;2023-04-21T09:19:00;11.90;99.90
32534;DHT22;18973;48.580;8.912;2023-04-21T09:21:28;11.90;99.90
32534;DHT22;18973;48.580;8.912;2023-04-21T09:23:56;11.90;99.90
32534;DHT22;18973;48.580;8.912;2023-04-21T09:26:23;12.10;99.90
32534;DHT22;18973;48.580;8.912;2023-04-21T09:28:51;12.30;99.90
32534;DHT22;18973;48.580;8.912;2023-04-21T09:31:22;12.40;99.90
32534;DHT22;18973;48.580;8.912;2023-04-21T09:33:55;12.70;99.90
32534;DHT22;18973;48.580;8.912;2023-04-21T09:36:27;12.90;99.90
32534;DHT22;18973;48.580;8.912;2023-04-21T09:41:18;13.50;99.90
32534;DHT22;18973;48.580;8.912;2023-04-21T09:43:44;13.50;99.90
32534;DHT22;18973;48.580;8.912;2023-04-21T09:46:11;13.60;99.90
32534;DHT22;18973;48.580;8.912;2023-04-21T09:48:39;13.80;99.90
32534;DHT22;18973;48.580;8.912;2023-04-21T09:51:07;14.00;99.90
32534;DHT22;18973;48.580;8.912;2023-04-21T09:53:33;14.00;99.90
32534;DHT22;18973;48.580;8.912;2023-04-21T09:56:03;14.10;99.90
32534;DHT22;18973;48.580;8.912;2023-04-21T09:58:37;14.30;99.90
32534;DHT22;18973;48.580;8.912;2023-04-21T10:01:05;14.30;99.90
32534;DHT22;18973;48.580;8.912;2023-04-21T10:03:31;14.30;99.90
32534;DHT22;18973;48.580;8.912;2023-04-21T10:05:56;14.50;99.90
32534;DHT22;18973;48.580;8.912;2023-04-21T10:08:22;14.50;99.90
32534;DHT22;18973;48.580;8.912;2023-04-21T10:10:48;14.60;99.90
32534;DHT22;18973;48.580;8.912;2023-04-21T10:13:15;14.70;99.90
32534;DHT22;18973;48.580;8.912;2023-04-21T10:15:42;14.90;99.90
32534;DHT22;18973;48.580;8.912;2023-04-21T10:18:22;14.90;99.90
32534;DHT22;18973;48.580;8.912;2023-04-21T10:20:55;15.00;99.90
32534;DHT22;18973;48.580;8.912;2023-04-21T10:28:53;15.40;99.90
32534;DHT22;18973;48.580;8.912;2023-04-21T10:31:30;15.40;99.70
32534;DHT22;18973;48.580;8.912;2023-04-21T10:39:27;15.90;99.90
32534;DHT22;18973;48.580;8.912;2023-04-21T10:42:26;15.90;98.70
32534;DHT22;18973;48.580;8.912;2023-04-21T10:47:51;16.30;99.40
32534;DHT22;18973;48.580;8.912;2023-04-21T10:50:22;16.40;99.90
32534;DHT22;18973;48.580;8.912;2023-04-21T10:55:31;16.30;98.50
32534;DHT22;18973;48.580;8.912;2023-04-21T10:58:01;16.20;98.20
32534;DHT22;18973;48.580;8.912;2023-04-21T11:00:27;16.20;99.10
32534;DHT22;18973;48.580;8.912;2023-04-21T11:02:59;16.40;99.00
32534;DHT22;18973;48.580;8.912;2023-04-21T11:05:43;16.50;98.40
32534;DHT22;18973;48.580;8.912;2023-04-21T11:08:11;16.60;99.20
32534;DHT22;18973;48.580;8.912;2023-04-21T11:13:11;16.80;98.20
32534;DHT22;18973;48.580;8.912;2023-04-21T11:15:38;16.90;99.10
32534;DHT22;18973;48.580;8.912;2023-04-21T11:18:04;17.10;98.60
32534;DHT22;18973;48.580;8.912;2023-04-21T11:20:32;17.10;98.10
32534;DHT22;18973;48.580;8.912;2023-04-21T11:22:58;17.20;98.30
32534;DHT22;18973;48.580;8.912;2023-04-21T11:25:24;17.10;98.00
32534;DHT22;18973;48.580;8.912;2023-04-21T11:27:53;17.00;98.60
32534;DHT22;18973;48.580;8.912;2023-04-21T11:30:21;17.10;97.70
32534;DHT22;18973;48.580;8.912;2023-04-21T11:32:53;17.10;97.50
32534;DHT22;18973;48.580;8.912;2023-04-21T11:35:19;17.20;98.10
32534;DHT22;18973;48.580;8.912;2023-04-21T11:37:48;17.40;98.60
32534;DHT22;18973;48.580;8.912;2023-04-21T11:40:14;17.60;97.40
32534;DHT22;18973;48.580;8.912;2023-04-21T11:42:40;17.60;96.80
32534;DHT22;18973;48.580;8.912;2023-04-21T11:45:06;17.70;97.10
32534;DHT22;18973;48.580;8.912;2023-04-21T11:47:32;17.70;95.60
32534;DHT22;18973;48.580;8.912;2023-04-21T11:50:00;17.80;95.30
32534;DHT22;18973;48.580;8.912;2023-04-21T11:52:28;17.80;95.80
32534;DHT22;18973;48.580;8.912;2023-04-21T11:55:05;17.90;96.00
32534;DHT22;18973;48.580;8.912;2023-04-21T11:57:35;18.10;95.20
32534;DHT22;18973;48.580;8.912;2023-04-21T12:00:05;18.10;93.70
32534;DHT22;18973;48.580;8.912;2023-04-21T12:02:33;18.00;94.60
32534;DHT22;18973;48.580;8.912;2023-04-21T12:07:26;17.90;95.20
32534;DHT22;18973;48.580;8.912;2023-04-21T12:09:53;17.80;94.70
32534;DHT22;18973;48.580;8.912;2023-04-21T12:12:21;17.70;95.00
32534;DHT22;18973;48.580;8.912;2023-04-21T12:14:48;17.70;95.10
32534;DHT22;18973;48.580;8.912;2023-04-21T12:17:14;18.00;95.80
32534;DHT22;18973;48.580;8.912;2023-04-21T12:19:41;18.10;95.60
32534;DHT22;18973;48.580;8.912;2023-04-21T12:22:08;18.40;96.50
32534;DHT22;18973;48.580;8.912;2023-04-21T12:24:34;18.70;95.50
32534;DHT22;18973;48.580;8.912;2023-04-21T12:27:00;18.80;93.90
32534;DHT22;18973;48.580;8.912;2023-04-21T12:29:27;18.70;93.30
32534;DHT22;18973;48.580;8.912;2023-04-21T12:31:53;18.70;93.20
32534;DHT22;18973;48.580;8.912;2023-04-21T12:34:18;18.60;92.00
32534;DHT22;18973;48.580;8.912;2023-04-21T12:36:44;18.80;92.70
32534;DHT22;18973;48.580;8.912;2023-04-21T12:39:10;18.80;93.20
32534;DHT22;18973;48.580;8.912;2023-04-21T12:41:36;19.00;90.90
32534;DHT22;18973;48.580;8.912;2023-04-21T12:44:01;19.10;91.70
32534;DHT22;18973;48.580;8.912;2023-04-21T12:46:27;19.20;92.00
32534;DHT22;18973;48.580;8.912;2023-04-21T12:48:53;19.30;92.40
32534;DHT22;18973;48.580;8.912;2023-04-21T12:51:19;19.30;92.30
32534;DHT22;18973;48.580;8.912;2023-04-21T12:53:44;19.20;90.50
32534;DHT22;18973;48.580;8.912;2023-04-21T12:56:11;19.10;91.30
32534;DHT22;18973;48.580;8.912;2023-04-21T12:58:36;19.00;91.10
32534;DHT22;18973;48.580;8.912;2023-04-21T13:01:02;19.20;91.90
32534;DHT22;18973;48.580;8.912;2023-04-21T13:03:28;19.40;92.00
32534;DHT22;18973;48.580;8.912;2023-04-21T13:05:53;19.50;90.30
32534;DHT22;18973;48.580;8.912;2023-04-21T13:08:20;19.60;91.40
32534;DHT22;18973;48.580;8.912;2023-04-21T13:10:46;19.30;90.90
32534;DHT22;18973;48.580;8.912;2023-04-21T13:13:11;19.30;90.00
32534;DHT22;18973;48.580;8.912;2023-04-21T13:15:37;19.30;90.00
32534;DHT22;18973;48.580;8.912;2023-04-21T13:18:03;19.40;88.70
32534;DHT22;18973;48.580;8.912;2023-04-21T13:20:29;19.50;89.60
32534;DHT22;18973;48.580;8.912;2023-04-21T13:22:55;19.50;90.20
32534;DHT22;18973;48.580;8.912;2023-04-21T13:25:21;19.60;87.50
32534;DHT22;18973;48.580;8.912;2023-04-21T13:27:47;19.70;90.30
32534;DHT22;18973;48.580;8.912;2023-04-21T13:30:14;19.80;87.90
32534;DHT22;18973;48.580;8.912;2023-04-21T13:32:41;19.90;88.30
32534;DHT22;18973;48.580;8.912;2023-04-21T13:35:07;19.90;86.90
32534;DHT22;18973;48.580;8.912;2023-04-21T13:37:38;19.70;83.80
32534;DHT22;18973;48.580;8.912;2023-04-21T13:40:05;19.60;83.80
32534;DHT22;18973;48.580;8.912;2023-04-21T13:42:33;19.70;86.20
32534;DHT22;18973;48.580;8.912;2023-04-21T13:44:59;20.00;87.40
32534;DHT22;18973;48.580;8.912;2023-04-21T13:47:29;20.20;85.40
32534;DHT22;18973;48.580;8.912;2023-04-21T13:49:55;20.00;85.60
32534;DHT22;18973;48.580;8.912;2023-04-21T13:52:21;20.00;84.60
32534;DHT22;18973;48.580;8.912;2023-04-21T13:54:47;20.10;84.50
32534;DHT22;18973;48.580;8.912;2023-04-21T13:57:12;20.00;85.90
32534;DHT22;18973;48.580;8.912;2023-04-21T13:59:38;19.70;84.60
32534;DHT22;18973;48.580;8.912;2023-04-21T14:02:04;19.70;86.10
32534;DHT22;18973;48.580;8.912;2023-04-21T14:04:29;19.80;83.40
32534;DHT22;18973;48.580;8.912;2023-04-21T14:06:55;19.80;84.90
32534;DHT22;18973;48.580;8.912;2023-04-21T14:09:21;20.00;83.80
32534;DHT22;18973;48.580;8.912;2023-04-21T14:11:47;20.20;84.70
32534;DHT22;18973;48.580;8.912;2023-04-21T14:14:12;20.40;85.70
32534;DHT22;18973;48.580;8.912;2023-04-21T14:16:38;20.40;82.00
32534;DHT22;18973;48.580;8.912;2023-04-21T14:19:04;20.20;80.60
32534;DHT22;18973;48.580;8.912;2023-04-21T14:21:30;20.10;84.40
32534;DHT22;18973;48.580;8.912;2023-04-21T14:23:57;20.10;83.50
32534;DHT22;18973;48.580;8.912;2023-04-21T14:26:22;19.90;81.10
32534;DHT22;18973;48.580;8.912;2023-04-21T14:28:49;19.70;82.80
32534;DHT22;18973;48.580;8.912;2023-04-21T14:31:15;19.70;81.60
32534;DHT22;18973;48.580;8.912;2023-04-21T14:33:41;19.60;85.30
32534;DHT22;18973;48.580;8.912;2023-04-21T14:36:07;19.70;82.00
32534;DHT22;18973;48.580;8.912;2023-04-21T14:38:33;19.70;83.30
32534;DHT22;18973;48.580;8.912;2023-04-21T14:40:59;19.70;82.50
32534;DHT22;18973;48.580;8.912;2023-04-21T14:43:24;19.90;83.30
32534;DHT22;18973;48.580;8.912;2023-04-21T14:45:51;19.70;79.60
32534;DHT22;18973;48.580;8.912;2023-04-21T14:48:16;19.70;81.10
32534;DHT22;18973;48.580;8.912;2023-04-21T14:50:42;19.50;81.30
32534;DHT22;18973;48.580;8.912;2023-04-21T14:53:08;19.40;83.70
32534;DHT22;18973;48.580;8.912;2023-04-21T14:55:34;19.30;83.60
32534;DHT22;18973;48.580;8.912;2023-04-21T14:58:00;19.40;83.20
32534;DHT22;18973;48.580;8.912;2023-04-21T15:00:25;19.40;85.00
32534;DHT22;18973;48.580;8.912;2023-04-21T15:02:52;19.40;85.60
32534;DHT22;18973;48.580;8.912;2023-04-21T15:05:18;19.50;83.90
32534;DHT22;18973;48.580;8.912;2023-04-21T15:07:44;19.50;84.20
32534;DHT22;18973;48.580;8.912;2023-04-21T15:10:10;19.40;83.70
32534;DHT22;18973;48.580;8.912;2023-04-21T15:12:36;19.50;84.70
32534;DHT22;18973;48.580;8.912;2023-04-21T15:15:04;19.60;84.80
32534;DHT22;18973;48.580;8.912;2023-04-21T15:17:30;19.60;84.70
32534;DHT22;18973;48.580;8.912;2023-04-21T15:19:56;19.50;84.60
32534;DHT22;18973;48.580;8.912;2023-04-21T15:22:22;19.50;82.00
32534;DHT22;18973;48.580;8.912;2023-04-21T15:24:48;19.50;81.30
32534;DHT22;18973;48.580;8.912;2023-04-21T15:27:14;19.50;80.60
32534;DHT22;18973;48.580;8.912;2023-04-21T15:29:40;19.60;81.90
32534;DHT22;18973;48.580;8.912;2023-04-21T15:32:06;19.60;80.80
32534;DHT22;18973;48.580;8.912;2023-04-21T15:34:32;19.80;80.60
32534;DHT22;18973;48.580;8.912;2023-04-21T15:36:57;19.90;82.40
32534;DHT22;18973;48.580;8.912;2023-04-21T15:39:23;19.80;80.90
32534;DHT22;18973;48.580;8.912;2023-04-21T15:41:49;19.80;83.40
32534;DHT22;18973;48.580;8.912;2023-04-21T15:44:15;19.70;81.10
32534;DHT22;18973;48.580;8.912;2023-04-21T15:46:40;19.70;80.60
32534;DHT22;18973;48.580;8.912;2023-04-21T15:49:06;19.70;82.70
32534;DHT22;18973;48.580;8.912;2023-04-21T15:51:33;19.60;83.70
32534;DHT22;18973;48.580;8.912;2023-04-21T15:53:59;19.60;83.70
32534;DHT22;18973;48.580;8.912;2023-04-21T15:56:25;19.60;82.00
32534;DHT22;18973;48.580;8.912;2023-04-21T15:58:51;19.50;81.10